createdAt,value
2019-05-18T00:00:25.769Z,26.85
2019-05-18T00:05:29.642Z,26.55
2019-05-18T00:10:33.521Z,29.12
2019-05-18T00:15:37.469Z,27.55
2019-05-18T00:20:44.929Z,26.50
2019-05-18T00:25:48.843Z,25.17
2019-05-18T00:30:52.764Z,26.70
2019-05-18T00:35:56.699Z,27.65
2019-05-18T00:41:00.628Z,26.52
2019-05-18T00:46:05.449Z,26.52
2019-05-18T00:51:09.362Z,25.80
2019-05-18T00:56:13.461Z,26.30
2019-05-18T01:01:17.360Z,27.22
2019-05-18T01:06:21.286Z,25.92
2019-05-18T01:11:25.196Z,30.05
2019-05-18T01:16:29.330Z,28.55
2019-05-18T01:21:33.258Z,28.90
2019-05-18T01:26:37.157Z,26.57
2019-05-18T01:31:41.076Z,28.77
2019-05-18T01:36:45.445Z,30.77
2019-05-18T01:41:49.443Z,30.17
2019-05-18T01:46:53.411Z,30.55
2019-05-18T01:51:57.334Z,33.95
2019-05-18T01:57:01.389Z,33.00
2019-05-18T02:02:05.318Z,33.88
2019-05-18T02:07:09.200Z,38.20
2019-05-18T02:12:13.090Z,35.23
2019-05-18T02:17:16.961Z,33.20
2019-05-18T02:22:20.877Z,33.02
2019-05-18T02:27:24.737Z,31.87
2019-05-18T02:32:28.622Z,31.02
2019-05-18T02:37:32.511Z,31.85
2019-05-18T02:42:36.369Z,33.70
2019-05-18T02:47:40.263Z,32.17
2019-05-18T02:52:44.129Z,30.55
2019-05-18T02:57:48.014Z,26.00
2019-05-18T03:02:51.893Z,24.20
2019-05-18T03:07:55.777Z,24.35
2019-05-18T03:12:59.691Z,26.15
2019-05-18T03:18:03.563Z,25.27
2019-05-18T03:23:07.442Z,25.45
2019-05-18T03:28:11.321Z,29.00
2019-05-18T03:33:15.200Z,31.37
2019-05-18T03:38:19.001Z,28.73
2019-05-18T03:43:22.870Z,29.98
2019-05-18T03:48:26.758Z,28.95
2019-05-18T03:53:30.671Z,30.50
2019-05-18T03:58:34.587Z,30.77
2019-05-18T04:03:38.501Z,33.95
2019-05-18T04:08:42.418Z,30.95
2019-05-18T04:13:46.337Z,31.45
2019-05-18T04:18:50.272Z,33.38
2019-05-18T04:23:54.185Z,31.40
2019-05-18T04:28:58.101Z,28.32
2019-05-18T04:34:02.028Z,27.15
2019-05-18T04:39:07.066Z,26.05
2019-05-18T04:44:11.001Z,28.77
2019-05-18T04:49:14.911Z,30.88
2019-05-18T04:54:18.822Z,30.80
2019-05-18T04:59:22.740Z,30.32
2019-05-18T05:04:26.649Z,30.55
2019-05-18T05:09:30.589Z,29.77
2019-05-18T05:14:34.519Z,32.95
2019-05-18T05:19:38.407Z,32.50
2019-05-18T05:24:42.279Z,32.88
2019-05-18T05:29:46.166Z,35.03
2019-05-18T05:34:50.045Z,34.75
2019-05-18T05:39:53.934Z,34.95
2019-05-18T05:44:57.817Z,35.63
2019-05-18T05:50:01.698Z,36.40
2019-05-18T05:55:10.186Z,35.23
2019-05-18T06:00:15.938Z,37.17
2019-05-18T06:05:19.896Z,33.98
2019-05-18T06:10:23.795Z,34.95
2019-05-18T06:15:27.827Z,34.13
2019-05-18T06:20:31.756Z,33.50
2019-05-18T06:25:35.738Z,32.85
2019-05-18T06:30:39.655Z,30.80
2019-05-18T06:35:43.580Z,29.18
2019-05-18T06:40:47.505Z,29.37
2019-05-18T06:45:51.422Z,28.10
2019-05-18T06:51:06.713Z,27.20
2019-05-18T06:56:02.037Z,24.05
2019-05-18T07:01:06.091Z,24.37
2019-05-18T07:06:10.043Z,23.42
2019-05-18T07:11:13.946Z,18.85
2019-05-18T07:16:19.542Z,12.82
2019-05-18T07:21:23.488Z,12.10
2019-05-18T07:26:27.430Z,12.00
2019-05-18T07:31:31.364Z,12.82
2019-05-18T07:36:35.272Z,11.05
2019-05-18T07:41:46.932Z,10.50
2019-05-18T07:46:44.811Z,9.23
2019-05-18T07:51:48.735Z,9.45
2019-05-18T07:56:52.662Z,9.10
2019-05-18T08:01:56.605Z,8.75
2019-05-18T08:07:00.590Z,9.45
2019-05-18T08:12:04.599Z,8.20
2019-05-18T08:17:08.582Z,8.55
2019-05-18T08:22:12.520Z,7.30
2019-05-18T08:27:17.097Z,7.65
2019-05-18T08:32:21.044Z,7.95
2019-05-18T08:37:25.109Z,7.42
2019-05-18T08:42:29.002Z,8.20
2019-05-18T08:47:33.026Z,6.92
2019-05-18T08:52:37.040Z,6.33
2019-05-18T08:57:40.985Z,6.58
2019-05-18T09:02:44.913Z,6.60
2019-05-18T09:07:48.837Z,7.12
2019-05-18T09:12:52.752Z,7.00
2019-05-18T09:17:56.730Z,7.22
2019-05-18T09:23:02.108Z,7.10
2019-05-18T09:28:06.288Z,7.95
2019-05-18T09:33:10.254Z,7.70
2019-05-18T09:38:14.754Z,7.37
2019-05-18T09:43:19.030Z,7.33
2019-05-18T09:48:23.119Z,7.25
2019-05-18T09:53:29.950Z,7.37
2019-05-18T09:58:32.924Z,6.53
2019-05-18T10:03:37.058Z,6.60
2019-05-18T10:08:41.388Z,6.50
2019-05-18T10:13:45.417Z,7.53
2019-05-18T10:18:50.145Z,7.00
2019-05-18T10:23:54.294Z,6.95
2019-05-18T10:28:58.221Z,6.72
2019-05-18T10:34:02.258Z,6.25
2019-05-18T10:39:07.614Z,6.92
2019-05-18T10:44:11.642Z,6.65
2019-05-18T10:49:16.900Z,6.50
2019-05-18T10:54:21.550Z,6.70
2019-05-18T10:59:25.572Z,6.58
2019-05-18T11:04:29.601Z,6.35
2019-05-18T11:09:33.647Z,6.70
2019-05-18T11:14:37.883Z,7.03
2019-05-18T11:19:41.896Z,6.60
2019-05-18T11:24:45.925Z,6.17
2019-05-18T11:29:49.924Z,6.05
2019-05-18T11:34:53.986Z,6.65
2019-05-18T11:39:57.991Z,6.95
2019-05-18T11:45:02.358Z,7.87
2019-05-18T11:50:08.432Z,6.60
2019-05-18T11:55:12.659Z,6.90
2019-05-18T12:00:17.326Z,6.85
2019-05-18T12:05:22.818Z,6.78
2019-05-18T12:10:28.437Z,7.10
2019-05-18T12:15:36.969Z,8.93
2019-05-18T12:25:44.209Z,7.35
2019-05-18T12:30:48.237Z,7.62
2019-05-18T12:35:52.309Z,6.47
2019-05-18T12:40:56.502Z,7.40
2019-05-18T12:46:00.438Z,6.42
2019-05-18T12:51:04.361Z,5.70
2019-05-18T12:56:08.308Z,5.92
2019-05-18T13:01:13.334Z,6.50
2019-05-18T13:06:17.821Z,5.53
2019-05-18T13:11:21.999Z,6.55
2019-05-18T13:16:25.969Z,5.85
2019-05-18T13:21:29.892Z,5.92
2019-05-18T13:26:33.812Z,6.53
2019-05-18T13:31:37.756Z,7.00
2019-05-18T13:36:41.587Z,6.60
2019-05-18T13:41:45.496Z,6.28
2019-05-18T13:46:51.408Z,6.10
2019-05-18T13:51:55.811Z,6.42
2019-05-18T13:56:59.875Z,6.62
2019-05-18T14:02:05.429Z,6.35
2019-05-18T14:07:09.910Z,6.45
2019-05-18T14:12:14.116Z,8.13
2019-05-18T14:17:19.498Z,6.95
2019-05-18T14:22:23.612Z,6.33
2019-05-18T14:27:30.654Z,6.42
2019-05-18T14:32:34.638Z,5.35
2019-05-18T14:37:38.551Z,5.65
2019-05-18T14:42:42.397Z,5.58
2019-05-18T14:47:46.788Z,7.15
2019-05-18T14:52:50.774Z,8.03
2019-05-18T14:57:56.268Z,6.67
2019-05-18T15:03:00.130Z,6.60
2019-05-18T15:08:04.707Z,6.53
2019-05-18T15:13:08.636Z,6.67
2019-05-18T15:18:12.714Z,6.70
2019-05-18T15:23:17.037Z,6.97
2019-05-18T15:28:21.421Z,6.53
2019-05-18T15:33:26.155Z,6.87
2019-05-18T15:38:33.347Z,6.83
2019-05-18T15:43:37.335Z,6.75
2019-05-18T15:48:42.083Z,6.75
2019-05-18T15:53:46.353Z,7.42
2019-05-18T15:58:50.667Z,6.80
2019-05-18T16:03:54.955Z,6.83
2019-05-18T16:08:59.773Z,6.97
2019-05-18T16:14:06.133Z,7.62
2019-05-18T16:19:10.754Z,7.22
2019-05-18T16:24:15.339Z,7.67
2019-05-18T16:29:20.715Z,6.90
2019-05-18T16:34:24.938Z,6.70
2019-05-18T16:39:29.083Z,7.03
2019-05-18T16:44:33.877Z,8.05
2019-05-18T16:49:39.185Z,6.62
2019-05-18T16:54:43.948Z,6.42
2019-05-18T16:59:49.010Z,6.50
2019-05-18T17:04:53.066Z,6.35
2019-05-18T17:09:56.926Z,5.80
2019-05-18T17:15:03.472Z,6.50
2019-05-18T17:20:09.130Z,6.80
2019-05-18T17:25:13.531Z,7.20
2019-05-18T17:30:17.888Z,7.42
2019-05-18T17:35:22.022Z,7.65
2019-05-18T17:40:26.076Z,8.25
2019-05-18T17:45:30.225Z,7.62
2019-05-18T17:50:35.143Z,7.65
2019-05-18T17:55:39.044Z,8.53
2019-05-18T18:00:44.264Z,10.55
2019-05-18T18:05:48.271Z,10.70
2019-05-18T18:10:52.199Z,11.73
2019-05-18T18:16:03.907Z,10.78
2019-05-18T18:21:08.349Z,21.02
2019-05-18T18:26:13.085Z,16.07
2019-05-18T18:31:17.338Z,15.18
2019-05-18T18:36:21.539Z,15.23
2019-05-18T18:41:25.977Z,14.90
2019-05-18T18:46:30.003Z,15.53
2019-05-18T18:51:34.074Z,14.33
2019-05-18T18:56:38.110Z,16.50
2019-05-18T19:01:42.069Z,13.13
2019-05-18T19:06:46.031Z,10.82
2019-05-18T19:11:50.018Z,9.00
2019-05-18T19:16:54.504Z,14.43
2019-05-18T19:21:58.914Z,15.70
2019-05-18T19:27:02.975Z,12.85
2019-05-18T19:32:07.744Z,14.33
2019-05-18T19:37:11.715Z,13.05
2019-05-18T19:42:15.742Z,15.03
2019-05-18T19:47:19.709Z,14.10
2019-05-18T19:52:23.795Z,13.95
2019-05-18T19:57:27.990Z,14.07
2019-05-18T20:02:32.458Z,14.83
2019-05-18T20:07:36.603Z,12.55
2019-05-18T20:12:40.616Z,12.70
2019-05-18T20:17:44.481Z,10.43
2019-05-18T20:22:48.383Z,10.48
2019-05-18T20:27:52.336Z,12.73
2019-05-18T20:32:56.247Z,13.40
2019-05-18T20:38:00.145Z,20.20
2019-05-18T20:43:04.101Z,19.40
2019-05-18T20:48:08.030Z,19.12
2019-05-18T20:53:12.189Z,20.37
2019-05-18T20:58:16.084Z,22.05
2019-05-18T21:03:20.117Z,18.67
2019-05-18T21:08:24.094Z,11.88
2019-05-18T21:13:27.957Z,11.30
2019-05-18T21:18:31.844Z,11.38
2019-05-18T21:23:35.759Z,9.18
2019-05-18T21:28:53.437Z,8.80
2019-05-18T21:33:46.893Z,8.18
2019-05-18T21:38:50.788Z,9.45
2019-05-18T21:43:54.673Z,9.50
2019-05-18T21:48:58.610Z,11.22
2019-05-18T21:54:02.583Z,9.93
2019-05-18T21:59:11.678Z,7.87
2019-05-18T22:04:12.112Z,8.05
2019-05-18T22:09:16.052Z,8.18
2019-05-18T22:14:20.000Z,10.20
2019-05-18T22:19:23.915Z,10.05
2019-05-18T22:24:27.772Z,9.75
2019-05-18T22:29:31.666Z,9.88
2019-05-18T22:34:35.538Z,9.80
2019-05-18T22:39:39.816Z,8.68
2019-05-18T22:44:43.715Z,8.75
2019-05-18T22:49:47.603Z,8.78
2019-05-18T22:54:51.485Z,8.78
2019-05-18T22:59:55.349Z,8.25
2019-05-18T23:04:59.223Z,9.00
2019-05-18T23:10:03.312Z,9.35
2019-05-18T23:15:08.198Z,9.70
2019-05-18T23:20:12.198Z,9.25
2019-05-18T23:25:16.382Z,10.25
2019-05-18T23:30:20.245Z,10.58
2019-05-18T23:35:24.121Z,11.90
2019-05-18T23:40:27.995Z,11.68
2019-05-18T23:45:32.091Z,10.55
2019-05-18T23:50:35.972Z,10.30
2019-05-18T23:55:39.884Z,10.15
